sensor_id;sensor_type;location;lat;lon;timestamp;temperature;humidity
9939;DHT22;5008;50.656;7.188;2022-12-29T05:01:26;12.00;99.90
9939;DHT22;5008;50.656;7.188;2022-12-29T05:04:01;12.00;99.90
9939;DHT22;5008;50.656;7.188;2022-12-29T05:06:28;12.10;99.90
9939;DHT22;5008;50.656;7.188;2022-12-29T05:08:55;12.10;99.90
9939;DHT22;5008;50.656;7.188;2022-12-29T05:11:22;12.10;99.90
9939;DHT22;5008;50.656;7.188;2022-12-29T05:13:49;11.90;99.90
9939;DHT22;5008;50.656;7.188;2022-12-29T05:16:18;11.80;99.90
9939;DHT22;5008;50.656;7.188;2022-12-29T05:18:54;11.70;99.90
9939;DHT22;5008;50.656;7.188;2022-12-29T05:21:20;11.70;99.90
9939;DHT22;5008;50.656;7.188;2022-12-29T05:23:47;11.60;99.90
9939;DHT22;5008;50.656;7.188;2022-12-29T05:26:14;11.50;99.90
9939;DHT22;5008;50.656;7.188;2022-12-29T05:28:41;11.50;99.90
9939;DHT22;5008;50.656;7.188;2022-12-29T05:31:08;11.50;99.90
9939;DHT22;5008;50.656;7.188;2022-12-29T05:33:34;11.50;99.90
9939;DHT22;5008;50.656;7.188;2022-12-29T05:36:05;11.50;99.90
9939;DHT22;5008;50.656;7.188;2022-12-29T05:38:32;11.50;99.90
9939;DHT22;5008;50.656;7.188;2022-12-29T05:40:59;11.40;99.90
9939;DHT22;5008;50.656;7.188;2022-12-29T05:43:26;11.40;99.90
9939;DHT22;5008;50.656;7.188;2022-12-29T05:45:53;11.40;99.90
9939;DHT22;5008;50.656;7.188;2022-12-29T05:48:20;11.30;99.90
9939;DHT22;5008;50.656;7.188;2022-12-29T05:50:47;11.30;99.90
9939;DHT22;5008;50.656;7.188;2022-12-29T05:53:16;11.40;99.90
9939;DHT22;5008;50.656;7.188;2022-12-29T05:55:43;11.40;99.90
9939;DHT22;5008;50.656;7.188;2022-12-29T05:58:10;11.50;99.90
9939;DHT22;5008;50.656;7.188;2022-12-29T06:00:44;11.40;99.90
9939;DHT22;5008;50.656;7.188;2022-12-29T06:03:12;11.40;99.90
9939;DHT22;5008;50.656;7.188;2022-12-29T06:05:39;11.40;99.90
9939;DHT22;5008;50.656;7.188;2022-12-29T06:08:06;11.40;99.90
9939;DHT22;5008;50.656;7.188;2022-12-29T06:10:34;11.40;99.90
9939;DHT22;5008;50.656;7.188;2022-12-29T06:13:01;11.50;99.90
9939;DHT22;5008;50.656;7.188;2022-12-29T06:15:29;11.60;99.90
9939;DHT22;5008;50.656;7.188;2022-12-29T06:17:56;11.60;99.90
9939;DHT22;5008;50.656;7.188;2022-12-29T06:20:22;11.60;99.90
9939;DHT22;5008;50.656;7.188;2022-12-29T06:22:49;11.40;99.90
9939;DHT22;5008;50.656;7.188;2022-12-29T06:25:16;11.40;99.90
9939;DHT22;5008;50.656;7.188;2022-12-29T06:27:45;11.40;99.90
9939;DHT22;5008;50.656;7.188;2022-12-29T06:30:23;11.40;99.90
9939;DHT22;5008;50.656;7.188;2022-12-29T06:32:49;11.30;99.90
9939;DHT22;5008;50.656;7.188;2022-12-29T06:35:17;11.30;99.90
9939;DHT22;5008;50.656;7.188;2022-12-29T06:37:44;11.30;99.90
9939;DHT22;5008;50.656;7.188;2022-12-29T06:40:11;11.20;99.90
9939;DHT22;5008;50.656;7.188;2022-12-29T06:42:38;11.20;99.90
9939;DHT22;5008;50.656;7.188;2022-12-29T06:45:07;11.20;99.90
9939;DHT22;5008;50.656;7.188;2022-12-29T06:47:34;11.10;99.90
9939;DHT22;5008;50.656;7.188;2022-12-29T06:50:20;11.10;99.90
9939;DHT22;5008;50.656;7.188;2022-12-29T06:52:56;11.10;99.90
9939;DHT22;5008;50.656;7.188;2022-12-29T06:55:23;11.00;99.90
9939;DHT22;5008;50.656;7.188;2022-12-29T06:57:50;11.00;99.90
9939;DHT22;5008;50.656;7.188;2022-12-29T07:00:18;11.10;99.90
9939;DHT22;5008;50.656;7.188;2022-12-29T07:02:45;11.20;99.90
9939;DHT22;5008;50.656;7.188;2022-12-29T07:05:12;11.20;99.90
9939;DHT22;5008;50.656;7.188;2022-12-29T07:07:39;11.20;99.90
9939;DHT22;5008;50.656;7.188;2022-12-29T07:10:06;11.20;99.90
9939;DHT22;5008;50.656;7.188;2022-12-29T07:12:33;11.20;99.90
9939;DHT22;5008;50.656;7.188;2022-12-29T07:15:00;11.20;99.90
9939;DHT22;5008;50.656;7.188;2022-12-29T07:17:28;11.20;99.90
9939;DHT22;5008;50.656;7.188;2022-12-29T07:19:55;11.20;99.90
9939;DHT22;5008;50.656;7.188;2022-12-29T07:22:22;11.20;99.90
9939;DHT22;5008;50.656;7.188;2022-12-29T07:24:49;11.10;99.90
9939;DHT22;5008;50.656;7.188;2022-12-29T07:27:16;11.10;99.90
9939;DHT22;5008;50.656;7.188;2022-12-29T07:29:43;11.00;99.90
9939;DHT22;5008;50.656;7.188;2022-12-29T07:32:10;11.00;99.90
9939;DHT22;5008;50.656;7.188;2022-12-29T07:34:38;10.90;99.90
9939;DHT22;5008;50.656;7.188;2022-12-29T07:37:07;11.00;99.90
9939;DHT22;5008;50.656;7.188;2022-12-29T07:39:36;11.00;99.90
9939;DHT22;5008;50.656;7.188;2022-12-29T07:42:06;10.90;99.90
9939;DHT22;5008;50.656;7.188;2022-12-29T07:44:33;10.90;99.90
9939;DHT22;5008;50.656;7.188;2022-12-29T07:47:02;11.00;99.90
9939;DHT22;5008;50.656;7.188;2022-12-29T07:49:29;11.10;99.90
9939;DHT22;5008;50.656;7.188;2022-12-29T07:55:01;11.30;99.90
9939;DHT22;5008;50.656;7.188;2022-12-29T07:57:28;11.30;99.90
9939;DHT22;5008;50.656;7.188;2022-12-29T07:59:54;11.30;99.90
9939;DHT22;5008;50.656;7.188;2022-12-29T08:02:21;11.30;99.90
9939;DHT22;5008;50.656;7.188;2022-12-29T08:04:48;11.40;99.90
9939;DHT22;5008;50.656;7.188;2022-12-29T08:07:15;11.40;99.90
9939;DHT22;5008;50.656;7.188;2022-12-29T08:09:53;11.30;99.90
9939;DHT22;5008;50.656;7.188;2022-12-29T08:12:23;11.30;99.90
9939;DHT22;5008;50.656;7.188;2022-12-29T08:14:50;11.30;99.90
9939;DHT22;5008;50.656;7.188;2022-12-29T08:17:17;11.20;99.90
9939;DHT22;5008;50.656;7.188;2022-12-29T08:20:17;11.10;99.90
9939;DHT22;5008;50.656;7.188;2022-12-29T08:22:45;11.20;99.90
9939;DHT22;5008;50.656;7.188;2022-12-29T08:25:19;11.10;99.90
9939;DHT22;5008;50.656;7.188;2022-12-29T08:27:47;11.40;99.90
9939;DHT22;5008;50.656;7.188;2022-12-29T08:30:16;11.40;99.90
9939;DHT22;5008;50.656;7.188;2022-12-29T08:32:46;11.40;99.90
9939;DHT22;5008;50.656;7.188;2022-12-29T08:35:13;11.30;99.90
9939;DHT22;5008;50.656;7.188;2022-12-29T08:37:40;11.20;99.90
9939;DHT22;5008;50.656;7.188;2022-12-29T08:40:10;11.20;99.90
9939;DHT22;5008;50.656;7.188;2022-12-29T08:42:43;11.10;99.90
9939;DHT22;5008;50.656;7.188;2022-12-29T08:45:12;11.20;99.90
9939;DHT22;5008;50.656;7.188;2022-12-29T08:47:45;11.20;99.90
9939;DHT22;5008;50.656;7.188;2022-12-29T08:50:17;11.20;99.90
9939;DHT22;5008;50.656;7.188;2022-12-29T08:52:49;11.10;99.90
9939;DHT22;5008;50.656;7.188;2022-12-29T08:55:16;11.10;99.90
9939;DHT22;5008;50.656;7.188;2022-12-29T08:57:46;11.00;99.90
9939;DHT22;5008;50.656;7.188;2022-12-29T09:00:15;11.00;99.90
9939;DHT22;5008;50.656;7.188;2022-12-29T09:02:42;11.10;99.90
9939;DHT22;5008;50.656;7.188;2022-12-29T09:05:33;11.10;99.90
9939;DHT22;5008;50.656;7.188;2022-12-29T09:08:00;11.20;99.90
9939;DHT22;5008;50.656;7.188;2022-12-29T09:10:27;11.30;99.90
9939;DHT22;5008;50.656;7.188;2022-12-29T09:12:56;11.30;99.90
9939;DHT22;5008;50.656;7.188;2022-12-29T09:15:27;11.30;99.90
9939;DHT22;5008;50.656;7.188;2022-12-29T09:17:53;11.30;99.90
9939;DHT22;5008;50.656;7.188;2022-12-29T09:20:21;11.40;99.90
9939;DHT22;5008;50.656;7.188;2022-12-29T09:22:48;11.40;99.90
9939;DHT22;5008;50.656;7.188;2022-12-29T09:25:15;11.60;99.90
9939;DHT22;5008;50.656;7.188;2022-12-29T09:28:13;11.50;99.90
9939;DHT22;5008;50.656;7.188;2022-12-29T09:30:44;11.40;99.90
9939;DHT22;5008;50.656;7.188;2022-12-29T09:33:24;11.40;99.90
9939;DHT22;5008;50.656;7.188;2022-12-29T09:35:53;11.40;99.90
9939;DHT22;5008;50.656;7.188;2022-12-29T09:38:24;11.30;99.90
9939;DHT22;5008;50.656;7.188;2022-12-29T09:40:54;11.40;99.90
9939;DHT22;5008;50.656;7.188;2022-12-29T09:43:36;11.20;99.90
9939;DHT22;5008;50.656;7.188;2022-12-29T09:46:15;11.30;99.90
9939;DHT22;5008;50.656;7.188;2022-12-29T09:48:49;11.30;99.90
9939;DHT22;5008;50.656;7.188;2022-12-29T09:51:22;11.30;99.90
9939;DHT22;5008;50.656;7.188;2022-12-29T09:53:56;11.20;99.90
9939;DHT22;5008;50.656;7.188;2022-12-29T09:56:25;11.20;99.90
9939;DHT22;5008;50.656;7.188;2022-12-29T09:58:56;11.20;99.90
9939;DHT22;5008;50.656;7.188;2022-12-29T10:01:30;11.40;99.90
9939;DHT22;5008;50.656;7.188;2022-12-29T10:03:59;11.40;99.90
9939;DHT22;5008;50.656;7.188;2022-12-29T10:06:33;11.50;99.90
9939;DHT22;5008;50.656;7.188;2022-12-29T10:09:19;11.60;99.90
9939;DHT22;5008;50.656;7.188;2022-12-29T10:11:59;11.80;99.90
9939;DHT22;5008;50.656;7.188;2022-12-29T10:14:45;11.90;99.90
9939;DHT22;5008;50.656;7.188;2022-12-29T10:17:25;12.00;99.90
9939;DHT22;5008;50.656;7.188;2022-12-29T10:20:01;12.10;99.90
9939;DHT22;5008;50.656;7.188;2022-12-29T10:22:41;12.00;99.90
9939;DHT22;5008;50.656;7.188;2022-12-29T10:25:16;12.00;99.90
9939;DHT22;5008;50.656;7.188;2022-12-29T10:27:48;12.00;99.90
9939;DHT22;5008;50.656;7.188;2022-12-29T10:30:15;11.90;99.90
9939;DHT22;5008;50.656;7.188;2022-12-29T10:32:47;11.90;99.90
9939;DHT22;5008;50.656;7.188;2022-12-29T10:35:25;12.00;99.90
9939;DHT22;5008;50.656;7.188;2022-12-29T10:38:02;12.00;99.90
9939;DHT22;5008;50.656;7.188;2022-12-29T10:40:36;12.00;99.90
9939;DHT22;5008;50.656;7.188;2022-12-29T10:43:13;11.90;99.90
9939;DHT22;5008;50.656;7.188;2022-12-29T10:45:43;12.00;99.90
9939;DHT22;5008;50.656;7.188;2022-12-29T10:48:20;12.00;99.90
9939;DHT22;5008;50.656;7.188;2022-12-29T10:50:47;11.90;99.90
9939;DHT22;5008;50.656;7.188;2022-12-29T10:53:20;11.80;99.90
9939;DHT22;5008;50.656;7.188;2022-12-29T10:55:49;11.90;99.90
9939;DHT22;5008;50.656;7.188;2022-12-29T10:58:17;12.00;99.90
9939;DHT22;5008;50.656;7.188;2022-12-29T11:00:52;12.10;99.90
9939;DHT22;5008;50.656;7.188;2022-12-29T11:03:45;12.30;99.90
9939;DHT22;5008;50.656;7.188;2022-12-29T11:06:20;12.50;99.90
9939;DHT22;5008;50.656;7.188;2022-12-29T11:08:53;12.50;99.90
9939;DHT22;5008;50.656;7.188;2022-12-29T11:11:27;12.60;99.90
9939;DHT22;5008;50.656;7.188;2022-12-29T11:14:01;12.60;99.90
9939;DHT22;5008;50.656;7.188;2022-12-29T11:16:31;12.70;99.90
9939;DHT22;5008;50.656;7.188;2022-12-29T11:19:01;12.60;99.90
9939;DHT22;5008;50.656;7.188;2022-12-29T11:21:34;12.50;99.90
9939;DHT22;5008;50.656;7.188;2022-12-29T11:24:18;12.60;99.90
9939;DHT22;5008;50.656;7.188;2022-12-29T11:26:51;12.60;99.90
9939;DHT22;5008;50.656;7.188;2022-12-29T11:29:29;12.60;99.90
9939;DHT22;5008;50.656;7.188;2022-12-29T11:32:12;12.70;99.90
9939;DHT22;5008;50.656;7.188;2022-12-29T11:34:41;12.60;99.90
9939;DHT22;5008;50.656;7.188;2022-12-29T11:37:12;12.60;99.90
9939;DHT22;5008;50.656;7.188;2022-12-29T11:39:41;12.60;99.90
9939;DHT22;5008;50.656;7.188;2022-12-29T11:42:18;12.50;99.90
9939;DHT22;5008;50.656;7.188;2022-12-29T11:45:06;12.50;99.90
9939;DHT22;5008;50.656;7.188;2022-12-29T11:47:36;12.60;99.90
9939;DHT22;5008;50.656;7.188;2022-12-29T11:50:15;12.60;99.90
9939;DHT22;5008;50.656;7.188;2022-12-29T11:52:43;12.70;99.90
9939;DHT22;5008;50.656;7.188;2022-12-29T11:55:17;12.60;99.90
9939;DHT22;5008;50.656;7.188;2022-12-29T11:57:45;12.70;99.90
9939;DHT22;5008;50.656;7.188;2022-12-29T12:00:47;12.80;99.90
9939;DHT22;5008;50.656;7.188;2022-12-29T12:03:17;12.80;99.90
9939;DHT22;5008;50.656;7.188;2022-12-29T12:05:49;12.70;99.90
9939;DHT22;5008;50.656;7.188;2022-12-29T12:08:28;12.80;99.90
9939;DHT22;5008;50.656;7.188;2022-12-29T12:11:04;12.80;99.90
9939;DHT22;5008;50.656;7.188;2022-12-29T12:13:37;12.80;99.90
9939;DHT22;5008;50.656;7.188;2022-12-29T12:16:08;12.80;99.90
9939;DHT22;5008;50.656;7.188;2022-12-29T12:18:40;12.70;99.90
9939;DHT22;5008;50.656;7.188;2022-12-29T12:21:14;12.60;99.90
9939;DHT22;5008;50.656;7.188;2022-12-29T12:24:05;12.60;99.90
9939;DHT22;5008;50.656;7.188;2022-12-29T12:26:44;12.60;99.90
9939;DHT22;5008;50.656;7.188;2022-12-29T12:29:24;12.40;99.90
9939;DHT22;5008;50.656;7.188;2022-12-29T12:31:56;12.40;99.90
9939;DHT22;5008;50.656;7.188;2022-12-29T12:34:27;12.40;99.90
9939;DHT22;5008;50.656;7.188;2022-12-29T12:37:15;12.30;99.90
9939;DHT22;5008;50.656;7.188;2022-12-29T12:39:49;12.30;99.90
9939;DHT22;5008;50.656;7.188;2022-12-29T12:42:33;12.40;99.90
9939;DHT22;5008;50.656;7.188;2022-12-29T12:45:36;12.40;99.90
9939;DHT22;5008;50.656;7.188;2022-12-29T12:48:26;12.50;99.90
9939;DHT22;5008;50.656;7.188;2022-12-29T12:51:03;12.50;99.90
9939;DHT22;5008;50.656;7.188;2022-12-29T12:53:44;12.50;99.90
9939;DHT22;5008;50.656;7.188;2022-12-29T12:56:27;12.60;99.90
9939;DHT22;5008;50.656;7.188;2022-12-29T12:59:06;12.50;99.90
9939;DHT22;5008;50.656;7.188;2022-12-29T13:01:42;12.40;99.90
9939;DHT22;5008;50.656;7.188;2022-12-29T13:04:38;12.40;99.90
9939;DHT22;5008;50.656;7.188;2022-12-29T13:07:16;12.50;99.90
9939;DHT22;5008;50.656;7.188;2022-12-29T13:10:01;12.30;99.90
9939;DHT22;5008;50.656;7.188;2022-12-29T13:12:47;12.20;99.90
9939;DHT22;5008;50.656;7.188;2022-12-29T13:15:34;12.20;99.90
9939;DHT22;5008;50.656;7.188;2022-12-29T13:18:31;12.20;99.90
9939;DHT22;5008;50.656;7.188;2022-12-29T13:21:06;12.20;99.90
9939;DHT22;5008;50.656;7.188;2022-12-29T13:23:37;12.10;99.90
9939;DHT22;5008;50.656;7.188;2022-12-29T13:29:36;12.10;99.90
9939;DHT22;5008;50.656;7.188;2022-12-29T13:32:17;12.00;99.90
9939;DHT22;5008;50.656;7.188;2022-12-29T13:34:57;12.20;99.90
9939;DHT22;5008;50.656;7.188;2022-12-29T13:37:48;12.10;99.90
9939;DHT22;5008;50.656;7.188;2022-12-29T13:40:28;12.20;99.90
9939;DHT22;5008;50.656;7.188;2022-12-29T13:43:01;12.20;99.90
9939;DHT22;5008;50.656;7.188;2022-12-29T13:45:31;12.40;99.90
9939;DHT22;5008;50.656;7.188;2022-12-29T13:50:48;12.40;99.90
9939;DHT22;5008;50.656;7.188;2022-12-29T13:53:57;12.30;99.90
9939;DHT22;5008;50.656;7.188;2022-12-29T13:56:42;12.30;99.90
9939;DHT22;5008;50.656;7.188;2022-12-29T13:59:23;12.30;99.90
9939;DHT22;5008;50.656;7.188;2022-12-29T14:01:59;12.20;99.90
9939;DHT22;5008;50.656;7.188;2022-12-29T14:04:29;12.10;99.90
9939;DHT22;5008;50.656;7.188;2022-12-29T14:07:01;12.00;99.90
9939;DHT22;5008;50.656;7.188;2022-12-29T14:09:42;12.10;99.90
9939;DHT22;5008;50.656;7.188;2022-12-29T14:12:21;12.10;99.90
9939;DHT22;5008;50.656;7.188;2022-12-29T14:14:48;12.20;99.90
9939;DHT22;5008;50.656;7.188;2022-12-29T14:17:20;12.30;99.90
9939;DHT22;5008;50.656;7.188;2022-12-29T14:19:52;12.20;99.90
9939;DHT22;5008;50.656;7.188;2022-12-29T14:22:27;12.30;99.90
9939;DHT22;5008;50.656;7.188;2022-12-29T14:24:54;12.30;99.90
9939;DHT22;5008;50.656;7.188;2022-12-29T14:30:50;12.00;99.90
9939;DHT22;5008;50.656;7.188;2022-12-29T14:33:20;12.00;99.90
9939;DHT22;5008;50.656;7.188;2022-12-29T14:35:50;12.00;99.90
9939;DHT22;5008;50.656;7.188;2022-12-29T14:38:26;12.00;99.90
9939;DHT22;5008;50.656;7.188;2022-12-29T14:41:17;12.00;99.90
9939;DHT22;5008;50.656;7.188;2022-12-29T14:43:54;12.10;99.90
9939;DHT22;5008;50.656;7.188;2022-12-29T14:46:22;12.10;99.90
9939;DHT22;5008;50.656;7.188;2022-12-29T14:48:55;12.00;99.90
9939;DHT22;5008;50.656;7.188;2022-12-29T14:51:32;12.00;99.90
9939;DHT22;5008;50.656;7.188;2022-12-29T14:54:34;12.00;99.90
9939;DHT22;5008;50.656;7.188;2022-12-29T14:57:10;11.90;99.90
9939;DHT22;5008;50.656;7.188;2022-12-29T14:59:39;11.80;99.90
9939;DHT22;5008;50.656;7.188;2022-12-29T15:02:16;11.70;99.90
9939;DHT22;5008;50.656;7.188;2022-12-29T15:04:45;11.50;99.90
9939;DHT22;5008;50.656;7.188;2022-12-29T15:07:13;11.50;99.90
9939;DHT22;5008;50.656;7.188;2022-12-29T15:09:52;11.60;99.90
9939;DHT22;5008;50.656;7.188;2022-12-29T15:12:23;11.60;99.90
9939;DHT22;5008;50.656;7.188;2022-12-29T15:14:56;11.50;99.90
9939;DHT22;5008;50.656;7.188;2022-12-29T15:17:25;11.50;99.90
9939;DHT22;5008;50.656;7.188;2022-12-29T15:19:54;11.50;99.90
9939;DHT22;5008;50.656;7.188;2022-12-29T15:22:21;11.40;99.90
9939;DHT22;5008;50.656;7.188;2022-12-29T15:24:50;11.40;99.90
9939;DHT22;5008;50.656;7.188;2022-12-29T15:27:26;11.40;99.90
9939;DHT22;5008;50.656;7.188;2022-12-29T15:29:58;11.20;99.90
9939;DHT22;5008;50.656;7.188;2022-12-29T15:32:28;11.40;99.90
9939;DHT22;5008;50.656;7.188;2022-12-29T15:34:57;11.30;99.90
9939;DHT22;5008;50.656;7.188;2022-12-29T15:37:27;11.20;99.90
9939;DHT22;5008;50.656;7.188;2022-12-29T15:39:56;11.10;99.90
9939;DHT22;5008;50.656;7.188;2022-12-29T15:42:51;11.20;99.90
9939;DHT22;5008;50.656;7.188;2022-12-29T15:45:34;11.10;99.90
9939;DHT22;5008;50.656;7.188;2022-12-29T15:48:01;11.10;99.90
9939;DHT22;5008;50.656;7.188;2022-12-29T15:50:32;11.10;99.90
9939;DHT22;5008;50.656;7.188;2022-12-29T15:52:59;10.90;99.90
9939;DHT22;5008;50.656;7.188;2022-12-29T15:55:32;10.70;99.90
9939;DHT22;5008;50.656;7.188;2022-12-29T15:58:01;10.60;99.90
9939;DHT22;5008;50.656;7.188;2022-12-29T16:00:30;10.50;99.90
9939;DHT22;5008;50.656;7.188;2022-12-29T16:03:00;10.60;99.90
9939;DHT22;5008;50.656;7.188;2022-12-29T16:05:34;10.50;99.90
9939;DHT22;5008;50.656;7.188;2022-12-29T16:08:02;10.40;99.90
9939;DHT22;5008;50.656;7.188;2022-12-29T16:10:32;10.30;99.90
9939;DHT22;5008;50.656;7.188;2022-12-29T16:13:04;10.20;99.90
9939;DHT22;5008;50.656;7.188;2022-12-29T16:15:31;10.10;99.90
9939;DHT22;5008;50.656;7.188;2022-12-29T16:17:58;10.10;99.90
9939;DHT22;5008;50.656;7.188;2022-12-29T16:20:37;10.00;99.90
9939;DHT22;5008;50.656;7.188;2022-12-29T16:23:05;10.00;99.90
9939;DHT22;5008;50.656;7.188;2022-12-29T16:25:33;10.00;99.90
9939;DHT22;5008;50.656;7.188;2022-12-29T16:28:16;9.90;99.90
9939;DHT22;5008;50.656;7.188;2022-12-29T16:30:43;9.80;99.90
9939;DHT22;5008;50.656;7.188;2022-12-29T16:33:29;9.80;99.90
9939;DHT22;5008;50.656;7.188;2022-12-29T16:36:01;9.80;99.90
9939;DHT22;5008;50.656;7.188;2022-12-29T16:38:31;9.70;99.90
9939;DHT22;5008;50.656;7.188;2022-12-29T16:41:00;9.70;99.90
9939;DHT22;5008;50.656;7.188;2022-12-29T16:43:28;9.70;99.90
9939;DHT22;5008;50.656;7.188;2022-12-29T16:46:21;9.60;99.90
9939;DHT22;5008;50.656;7.188;2022-12-29T16:48:52;9.60;99.90
9939;DHT22;5008;50.656;7.188;2022-12-29T16:51:29;9.50;99.90
9939;DHT22;5008;50.656;7.188;2022-12-29T16:53:56;9.50;99.90
9939;DHT22;5008;50.656;7.188;2022-12-29T16:56:26;9.50;99.90
9939;DHT22;5008;50.656;7.188;2022-12-29T16:59:01;9.40;99.90
9939;DHT22;5008;50.656;7.188;2022-12-29T17:01:28;9.40;99.90
9939;DHT22;5008;50.656;7.188;2022-12-29T17:03:58;9.50;99.90
9939;DHT22;5008;50.656;7.188;2022-12-29T17:06:30;9.40;99.90
9939;DHT22;5008;50.656;7.188;2022-12-29T17:08:57;9.30;99.90
9939;DHT22;5008;50.656;7.188;2022-12-29T17:11:28;9.40;99.90
9939;DHT22;5008;50.656;7.188;2022-12-29T17:14:21;9.30;99.90
9939;DHT22;5008;50.656;7.188;2022-12-29T17:16:49;9.20;99.90
9939;DHT22;5008;50.656;7.188;2022-12-29T17:19:17;9.20;99.90
9939;DHT22;5008;50.656;7.188;2022-12-29T17:21:47;9.10;99.90
9939;DHT22;5008;50.656;7.188;2022-12-29T17:24:16;9.10;99.90
9939;DHT22;5008;50.656;7.188;2022-12-29T17:26:45;9.20;99.90
9939;DHT22;5008;50.656;7.188;2022-12-29T17:29:17;9.10;99.90
9939;DHT22;5008;50.656;7.188;2022-12-29T17:32:05;9.10;99.90
9939;DHT22;5008;50.656;7.188;2022-12-29T17:34:32;8.90;99.90
9939;DHT22;5008;50.656;7.188;2022-12-29T17:37:01;9.00;99.90
9939;DHT22;5008;50.656;7.188;2022-12-29T17:39:28;9.00;99.90
9939;DHT22;5008;50.656;7.188;2022-12-29T17:41:55;9.10;99.90
9939;DHT22;5008;50.656;7.188;2022-12-29T17:44:22;9.00;99.90
9939;DHT22;5008;50.656;7.188;2022-12-29T17:46:50;9.10;99.90
9939;DHT22;5008;50.656;7.188;2022-12-29T17:49:17;9.10;99.90
9939;DHT22;5008;50.656;7.188;2022-12-29T17:51:45;9.20;99.90
9939;DHT22;5008;50.656;7.188;2022-12-29T17:54:24;9.40;99.90
9939;DHT22;5008;50.656;7.188;2022-12-29T17:56:51;9.60;99.90
9939;DHT22;5008;50.656;7.188;2022-12-29T17:59:18;9.50;99.90
9939;DHT22;5008;50.656;7.188;2022-12-29T18:01:47;9.50;99.90
9939;DHT22;5008;50.656;7.188;2022-12-29T18:04:15;9.40;99.90
9939;DHT22;5008;50.656;7.188;2022-12-29T18:06:43;9.30;99.90
9939;DHT22;5008;50.656;7.188;2022-12-29T18:09:11;9.20;99.90
9939;DHT22;5008;50.656;7.188;2022-12-29T18:11:39;9.10;99.90
9939;DHT22;5008;50.656;7.188;2022-12-29T18:14:10;9.00;99.90
9939;DHT22;5008;50.656;7.188;2022-12-29T18:16:37;8.90;99.90
9939;DHT22;5008;50.656;7.188;2022-12-29T18:19:04;8.90;99.90
9939;DHT22;5008;50.656;7.188;2022-12-29T18:21:31;8.80;99.90
9939;DHT22;5008;50.656;7.188;2022-12-29T18:23:58;8.90;99.90
9939;DHT22;5008;50.656;7.188;2022-12-29T18:26:27;8.90;99.90
9939;DHT22;5008;50.656;7.188;2022-12-29T18:28:58;8.80;99.90
9939;DHT22;5008;50.656;7.188;2022-12-29T18:31:26;8.80;99.90
9939;DHT22;5008;50.656;7.188;2022-12-29T18:34:20;8.90;99.90
9939;DHT22;5008;50.656;7.188;2022-12-29T18:36:47;8.80;99.90
9939;DHT22;5008;50.656;7.188;2022-12-29T18:39:14;8.80;99.90
9939;DHT22;5008;50.656;7.188;2022-12-29T18:41:46;8.80;99.90
9939;DHT22;5008;50.656;7.188;2022-12-29T18:44:15;8.80;99.90
9939;DHT22;5008;50.656;7.188;2022-12-29T18:46:41;8.80;99.90
9939;DHT22;5008;50.656;7.188;2022-12-29T18:49:08;8.70;99.90
9939;DHT22;5008;50.656;7.188;2022-12-29T18:51:35;8.80;99.90
9939;DHT22;5008;50.656;7.188;2022-12-29T18:54:02;8.80;99.90
9939;DHT22;5008;50.656;7.188;2022-12-29T18:56:29;8.70;99.90
9939;DHT22;5008;50.656;7.188;2022-12-29T18:58:55;8.80;99.90
9939;DHT22;5008;50.656;7.188;2022-12-29T19:01:25;8.80;99.90
9939;DHT22;5008;50.656;7.188;2022-12-29T19:03:53;8.80;99.90
9939;DHT22;5008;50.656;7.188;2022-12-29T19:06:20;8.80;99.90
9939;DHT22;5008;50.656;7.188;2022-12-29T19:08:47;8.80;99.90
9939;DHT22;5008;50.656;7.188;2022-12-29T19:11:21;8.80;99.90
9939;DHT22;5008;50.656;7.188;2022-12-29T19:13:48;9.00;99.90
9939;DHT22;5008;50.656;7.188;2022-12-29T19:16:18;9.10;99.90
9939;DHT22;5008;50.656;7.188;2022-12-29T19:18:47;9.10;99.90
9939;DHT22;5008;50.656;7.188;2022-12-29T19:21:14;9.20;99.90
9939;DHT22;5008;50.656;7.188;2022-12-29T19:23:41;9.20;99.90
9939;DHT22;5008;50.656;7.188;2022-12-29T19:26:20;9.20;99.90
9939;DHT22;5008;50.656;7.188;2022-12-29T19:28:50;9.20;99.90
9939;DHT22;5008;50.656;7.188;2022-12-29T19:31:17;9.20;99.90
9939;DHT22;5008;50.656;7.188;2022-12-29T19:33:43;9.10;99.90
9939;DHT22;5008;50.656;7.188;2022-12-29T19:36:13;9.20;99.90
9939;DHT22;5008;50.656;7.188;2022-12-29T19:38:41;9.30;99.90
9939;DHT22;5008;50.656;7.188;2022-12-29T19:41:07;9.30;99.90
9939;DHT22;5008;50.656;7.188;2022-12-29T19:43:34;9.30;99.90
9939;DHT22;5008;50.656;7.188;2022-12-29T19:46:05;9.30;99.90
9939;DHT22;5008;50.656;7.188;2022-12-29T19:48:32;9.20;99.90
9939;DHT22;5008;50.656;7.188;2022-12-29T19:51:03;9.20;99.90
9939;DHT22;5008;50.656;7.188;2022-12-29T19:53:32;9.10;99.90
9939;DHT22;5008;50.656;7.188;2022-12-29T19:56:01;9.00;99.90
9939;DHT22;5008;50.656;7.188;2022-12-29T19:58:29;9.00;99.90
9939;DHT22;5008;50.656;7.188;2022-12-29T20:01:03;8.90;99.90
9939;DHT22;5008;50.656;7.188;2022-12-29T20:03:30;8.90;99.90
9939;DHT22;5008;50.656;7.188;2022-12-29T20:05:57;8.90;99.90
9939;DHT22;5008;50.656;7.188;2022-12-29T20:08:28;8.90;99.90
9939;DHT22;5008;50.656;7.188;2022-12-29T20:11:00;8.80;99.90
9939;DHT22;5008;50.656;7.188;2022-12-29T20:13:28;8.60;99.90
9939;DHT22;5008;50.656;7.188;2022-12-29T20:15:57;8.60;99.90
9939;DHT22;5008;50.656;7.188;2022-12-29T20:18:24;8.60;99.90
9939;DHT22;5008;50.656;7.188;2022-12-29T20:20:51;8.60;99.90
9939;DHT22;5008;50.656;7.188;2022-12-29T20:23:18;8.60;99.90
9939;DHT22;5008;50.656;7.188;2022-12-29T20:25:51;8.70;99.90
9939;DHT22;5008;50.656;7.188;2022-12-29T20:28:20;8.70;99.90
9939;DHT22;5008;50.656;7.188;2022-12-29T20:30:53;8.60;99.90
9939;DHT22;5008;50.656;7.188;2022-12-29T20:33:21;8.50;99.90
9939;DHT22;5008;50.656;7.188;2022-12-29T20:35:48;8.40;99.90
9939;DHT22;5008;50.656;7.188;2022-12-29T20:38:15;8.70;99.90
9939;DHT22;5008;50.656;7.188;2022-12-29T20:40:42;8.70;99.90
9939;DHT22;5008;50.656;7.188;2022-12-29T20:43:11;8.70;99.90
9939;DHT22;5008;50.656;7.188;2022-12-29T20:45:39;8.70;99.90
9939;DHT22;5008;50.656;7.188;2022-12-29T20:48:06;8.70;99.90
9939;DHT22;5008;50.656;7.188;2022-12-29T20:50:32;8.60;99.90
9939;DHT22;5008;50.656;7.188;2022-12-29T20:52:59;8.60;99.90
9939;DHT22;5008;50.656;7.188;2022-12-29T20:55:26;8.60;99.90
9939;DHT22;5008;50.656;7.188;2022-12-29T20:57:53;8.50;99.90
9939;DHT22;5008;50.656;7.188;2022-12-29T21:00:20;8.40;99.90
9939;DHT22;5008;50.656;7.188;2022-12-29T21:02:51;8.30;99.90
9939;DHT22;5008;50.656;7.188;2022-12-29T21:05:19;8.20;99.90
9939;DHT22;5008;50.656;7.188;2022-12-29T21:07:47;8.20;99.90
9939;DHT22;5008;50.656;7.188;2022-12-29T21:10:46;8.10;99.90
9939;DHT22;5008;50.656;7.188;2022-12-29T21:13:13;8.00;99.90
9939;DHT22;5008;50.656;7.188;2022-12-29T21:15:54;8.00;99.90
9939;DHT22;5008;50.656;7.188;2022-12-29T21:18:23;7.80;99.90
9939;DHT22;5008;50.656;7.188;2022-12-29T21:20:54;7.70;99.90
9939;DHT22;5008;50.656;7.188;2022-12-29T21:23:21;7.60;99.90
9939;DHT22;5008;50.656;7.188;2022-12-29T21:25:48;7.40;99.90
9939;DHT22;5008;50.656;7.188;2022-12-29T21:28:15;7.50;99.90
9939;DHT22;5008;50.656;7.188;2022-12-29T21:30:42;7.40;99.90
9939;DHT22;5008;50.656;7.188;2022-12-29T21:33:09;7.30;99.90
9939;DHT22;5008;50.656;7.188;2022-12-29T21:35:37;7.30;99.90
9939;DHT22;5008;50.656;7.188;2022-12-29T21:38:04;7.10;99.90
9939;DHT22;5008;50.656;7.188;2022-12-29T21:40:33;7.10;99.90
9939;DHT22;5008;50.656;7.188;2022-12-29T21:43:10;7.00;99.90
9939;DHT22;5008;50.656;7.188;2022-12-29T21:45:37;7.10;99.90
9939;DHT22;5008;50.656;7.188;2022-12-29T21:48:04;7.00;99.90
9939;DHT22;5008;50.656;7.188;2022-12-29T21:50:51;7.00;99.90